Time;durP1;ratioP1;P1;durP2;ratioP2;P2;SDS_P1;SDS_P2;PMS_P1;PMS_P2;Temp;Humidity;BMP_temperature;BMP_pressure;BME280_temperature;BME280_humidity;BME280_pressure;Samples;Min_cycle;Max_cycle;Signal;HPM_P1;HPM_P2
2022/08/09 00:01:28;;;;;;;2.17;1.88;;;26.70;37.00;;;;;;5013938;28;20018;-66
2022/08/09 00:03:53;;;;;;;3.75;1.73;;;26.80;36.90;;;;;;5013915;28;20514;-65
2022/08/09 00:06:19;;;;;;;2.72;1.80;;;26.70;36.80;;;;;;5014240;28;20455;-65
2022/08/09 00:08:47;;;;;;;2.08;1.67;;;26.70;36.60;;;;;;5013693;28;20033;-64
2022/08/09 00:11:14;;;;;;;2.03;1.45;;;26.70;36.70;;;;;;5014862;28;20032;-65
2022/08/09 00:13:40;;;;;;;2.22;1.77;;;26.70;37.00;;;;;;5014760;28;20509;-63
2022/08/09 00:16:06;;;;;;;2.20;1.85;;;26.60;37.20;;;;;;5013634;28;20049;-66
2022/08/09 00:18:33;;;;;;;6.03;1.90;;;26.70;37.40;;;;;;5012711;28;20036;-65
2022/08/09 00:21:00;;;;;;;2.45;1.63;;;26.60;37.50;;;;;;5013822;28;20500;-65
2022/08/09 00:23:26;;;;;;;2.28;1.45;;;26.60;37.60;;;;;;5013776;28;20030;-65
2022/08/09 00:25:52;;;;;;;2.90;2.00;;;26.60;37.70;;;;;;5013381;28;20449;-65
2022/08/09 00:28:18;;;;;;;1.83;1.60;;;26.60;37.90;;;;;;5013189;28;20022;-63
2022/08/09 00:30:43;;;;;;;3.67;1.98;;;26.70;38.10;;;;;;5013339;28;20026;-64
2022/08/09 00:33:09;;;;;;;1.25;1.15;;;26.70;38.20;;;;;;5013435;28;20030;-63
2022/08/09 00:35:35;;;;;;;1.75;1.65;;;26.70;38.30;;;;;;5013377;28;20076;-64
2022/08/09 00:38:00;;;;;;;1.83;1.60;;;26.70;38.40;;;;;;5012623;28;20454;-65
2022/08/09 00:40:26;;;;;;;2.35;1.58;;;26.70;38.40;;;;;;5013262;28;20108;-65
2022/08/09 00:42:52;;;;;;;2.13;1.52;;;26.70;38.40;;;;;;5013262;28;20061;-65
2022/08/09 00:45:18;;;;;;;1.63;1.25;;;26.70;38.40;;;;;;5012030;28;20022;-64
2022/08/09 00:47:43;;;;;;;2.15;1.75;;;26.70;38.40;;;;;;5013115;28;20034;-64
2022/08/09 00:50:09;;;;;;;2.47;1.50;;;26.70;38.40;;;;;;5013153;28;20395;-65
2022/08/09 00:52:36;;;;;;;3.53;1.60;;;26.70;38.40;;;;;;5013004;28;20041;-63
2022/08/09 00:55:02;;;;;;;1.98;1.60;;;26.70;38.20;;;;;;5012818;28;20048;-66
2022/08/09 00:57:31;;;;;;;2.55;1.42;;;26.70;37.80;;;;;;5010862;28;20423;-64
2022/08/09 00:59:58;;;;;;;3.13;1.58;;;26.70;37.00;;;;;;5012738;28;20026;-63
2022/08/09 01:02:28;;;;;;;2.38;1.60;;;26.70;37.20;;;;;;5012804;28;20080;-65
2022/08/09 01:05:29;;;;;;;2.53;1.42;;;26.70;36.90;;;;;;5012496;28;20026;-64
2022/08/09 01:08:09;;;;;;;3.13;1.60;;;26.70;36.90;;;;;;4980099;28;20030;-64
2022/08/09 01:10:46;;;;;;;3.20;2.10;;;26.70;36.70;;;;;;5013280;28;20045;-64
2022/08/09 01:13:30;;;;;;;3.33;1.73;;;26.60;36.80;;;;;;5011279;28;20053;-65
2022/08/09 01:15:58;;;;;;;2.60;1.95;;;26.60;36.70;;;;;;5012560;28;20080;-65
2022/08/09 01:18:28;;;;;;;2.80;1.60;;;26.60;36.70;;;;;;5011700;28;20021;-63
2022/08/09 01:21:18;;;;;;;2.20;1.70;;;26.60;36.80;;;;;;5012341;28;20036;-63
2022/08/09 01:24:06;;;;;;;2.35;1.60;;;26.50;37.00;;;;;;5012406;28;20380;-64
2022/08/09 01:26:55;;;;;;;3.08;1.75;;;26.50;36.90;;;;;;5012527;28;20022;-65
2022/08/09 01:29:34;;;;;;;4.22;2.03;;;26.50;36.80;;;;;;5011696;28;20034;-64
2022/08/09 01:32:03;;;;;;;2.60;1.42;;;26.40;37.10;;;;;;5012260;28;20101;-64
2022/08/09 01:34:31;;;;;;;3.17;1.80;;;26.40;37.20;;;;;;5010790;28;20117;-64
2022/08/09 01:36:59;;;;;;;5.18;2.50;;;26.40;37.30;;;;;;5012017;28;20042;-63
2022/08/09 01:39:27;;;;;;;1.50;1.38;;;26.40;37.60;;;;;;5011654;28;20030;-63
2022/08/09 01:41:54;;;;;;;3.03;2.08;;;26.40;37.80;;;;;;5012654;28;20053;-66
2022/08/09 01:44:21;;;;;;;2.28;1.50;;;26.40;37.80;;;;;;5012249;28;20026;-66
2022/08/09 01:46:48;;;;;;;3.30;1.63;;;26.40;37.10;;;;;;5010707;28;20428;-65
2022/08/09 01:49:16;;;;;;;3.15;1.67;;;26.40;36.70;;;;;;5011149;28;20060;-65
2022/08/09 01:51:56;;;;;;;2.53;1.58;;;26.40;36.90;;;;;;5011943;28;20052;-65
2022/08/09 01:54:28;;;;;;;3.33;1.63;;;26.40;37.00;;;;;;5011783;28;20080;-65
2022/08/09 01:56:55;;;;;;;3.92;1.65;;;26.40;37.00;;;;;;5012049;28;20026;-65
2022/08/09 01:59:22;;;;;;;3.42;1.98;;;26.40;36.90;;;;;;5010650;28;20507;-66
2022/08/09 02:01:51;;;;;;;4.63;1.90;;;26.40;36.90;;;;;;5011739;28;20030;-66
2022/08/09 02:04:19;;;;;;;2.13;1.55;;;26.40;36.90;;;;;;5011589;28;20029;-65
2022/08/09 02:09:35;;;;;;;3.70;1.83;;;26.30;37.10;;;;;;5011529;28;20120;-65
2022/08/09 02:12:04;;;;;;;1.73;1.45;;;26.30;37.10;;;;;;5011566;28;20057;-65
2022/08/09 02:14:30;;;;;;;2.65;2.03;;;26.30;37.30;;;;;;5010810;28;20083;-64
2022/08/09 02:16:57;;;;;;;1.77;1.52;;;26.30;37.30;;;;;;5011541;28;20272;-66
2022/08/09 02:19:24;;;;;;;1.70;1.60;;;26.30;37.10;;;;;;5010813;28;20045;-65
2022/08/09 02:21:56;;;;;;;3.10;1.55;;;26.30;36.90;;;;;;5011431;28;20472;-64
2022/08/09 02:24:28;;;;;;;2.05;1.58;;;26.20;36.80;;;;;;5011315;28;20022;-65
2022/08/09 02:26:59;;;;;;;4.10;1.77;;;26.20;37.00;;;;;;5011519;28;20030;-65
2022/08/09 02:29:30;;;;;;;1.90;1.48;;;26.10;36.90;;;;;;5010984;28;20038;-66
2022/08/09 02:32:00;;;;;;;2.17;1.58;;;26.10;36.90;;;;;;5011480;28;20030;-65
2022/08/09 02:34:30;;;;;;;3.03;1.67;;;26.10;36.80;;;;;;5010906;28;20061;-65
2022/08/09 02:36:58;;;;;;;4.07;1.77;;;26.10;36.90;;;;;;5011096;28;20109;-64
2022/08/09 02:39:53;;;;;;;3.17;2.03;;;26.10;37.10;;;;;;5010481;28;20483;-64
2022/08/09 02:42:24;;;;;;;3.38;2.13;;;26.00;36.90;;;;;;5011089;28;20041;-64
2022/08/09 02:44:55;;;;;;;2.22;1.70;;;26.00;37.00;;;;;;5010856;28;20029;-65
2022/08/09 02:47:22;;;;;;;1.75;1.60;;;26.00;37.30;;;;;;5025332;28;20029;-64
2022/08/09 02:49:55;;;;;;;1.90;1.70;;;26.00;37.40;;;;;;5010654;28;20022;-65
2022/08/09 02:52:23;;;;;;;3.05;1.58;;;26.00;37.20;;;;;;5010700;28;20022;-66
2022/08/09 02:54:50;;;;;;;2.97;1.90;;;26.00;37.30;;;;;;5032817;23;20037;-61
2022/08/09 02:57:18;;;;;;;3.13;1.80;;;26.00;37.40;;;;;;4967482;28;20118;-64
2022/08/09 02:59:44;;;;;;;3.92;1.73;;;26.00;37.50;;;;;;4967850;28;20093;-63
2022/08/09 03:02:13;;;;;;;1.67;1.42;;;25.90;37.50;;;;;;4969164;28;20420;-63
2022/08/09 03:04:40;;;;;;;3.30;2.40;;;25.90;37.50;;;;;;4969013;28;20109;-64
2022/08/09 03:07:06;;;;;;;4.03;2.13;;;26.00;37.70;;;;;;4968235;28;20408;-62
2022/08/09 03:09:32;;;;;;;2.20;1.65;;;25.90;37.60;;;;;;4969172;28;20023;-62
2022/08/09 03:12:00;;;;;;;1.92;1.75;;;25.90;37.30;;;;;;4969117;28;20489;-63
2022/08/09 03:14:28;;;;;;;4.00;1.98;;;25.90;37.30;;;;;;4969057;28;20404;-63
2022/08/09 03:16:54;;;;;;;4.63;2.38;;;25.90;37.60;;;;;;4968780;28;20544;-63
2022/08/09 03:19:21;;;;;;;2.65;2.10;;;25.80;37.70;;;;;;4968125;28;20532;-62
2022/08/09 03:21:49;;;;;;;2.08;1.65;;;25.80;37.70;;;;;;4968975;28;20307;-62
2022/08/09 03:24:15;;;;;;;2.65;1.75;;;25.80;37.70;;;;;;4967715;28;20447;-62
2022/08/09 03:26:43;;;;;;;2.42;1.80;;;25.80;37.60;;;;;;4970136;28;20499;-63
2022/08/09 03:29:09;;;;;;;2.28;1.90;;;25.80;37.50;;;;;;4971715;28;20066;-63
2022/08/09 03:31:36;;;;;;;2.38;2.00;;;25.80;37.50;;;;;;4972163;28;20438;-63
2022/08/09 03:34:03;;;;;;;2.17;1.98;;;25.80;37.60;;;;;;4972058;28;20029;-63
2022/08/09 03:36:28;;;;;;;1.95;1.77;;;25.70;37.80;;;;;;4971916;28;20037;-63
2022/08/09 03:38:55;;;;;;;1.92;1.83;;;25.80;37.60;;;;;;4971107;28;20027;-64
2022/08/09 03:41:21;;;;;;;2.10;1.85;;;25.70;37.80;;;;;;4972031;28;20050;-63
2022/08/09 03:43:46;;;;;;;3.35;1.80;;;25.70;37.80;;;;;;4971965;28;20051;-63
2022/08/09 03:46:12;;;;;;;2.15;1.58;;;25.70;37.60;;;;;;4972071;28;20064;-62
2022/08/09 03:48:39;;;;;;;2.67;1.65;;;25.70;37.50;;;;;;4971166;28;20543;-63
2022/08/09 03:51:08;;;;;;;2.10;1.40;;;25.60;37.80;;;;;;4971794;28;20076;-63
2022/08/09 03:53:36;;;;;;;2.28;1.70;;;25.70;37.70;;;;;;4971834;28;20034;-63
2022/08/09 03:56:03;;;;;;;2.63;2.13;;;25.60;37.70;;;;;;4971581;28;20038;-63
2022/08/09 03:58:29;;;;;;;3.78;1.95;;;25.60;37.60;;;;;;4970943;28;20120;-63
2022/08/09 04:00:55;;;;;;;2.72;2.20;;;25.60;37.70;;;;;;4970406;28;20058;-63
2022/08/09 04:03:21;;;;;;;2.75;1.90;;;25.60;37.70;;;;;;4971590;28;20027;-62
2022/08/09 04:05:47;;;;;;;2.55;1.73;;;25.60;37.60;;;;;;4971880;28;20030;-63
2022/08/09 04:08:12;;;;;;;2.35;1.83;;;25.60;37.70;;;;;;4970744;28;20426;-64
2022/08/09 04:10:38;;;;;;;2.60;1.63;;;25.50;37.90;;;;;;4971780;28;20027;-63
2022/08/09 04:13:10;;;;;;;2.00;1.60;;;25.50;37.90;;;;;;4971530;28;20027;-63
2022/08/09 04:15:36;;;;;;;2.03;1.80;;;25.50;37.90;;;;;;4971452;28;20037;-63
2022/08/09 04:18:04;;;;;;;2.72;1.98;;;25.50;37.70;;;;;;4970640;28;20027;-65
2022/08/09 04:20:29;;;;;;;3.80;1.90;;;25.50;37.80;;;;;;4971347;28;20030;-64
2022/08/09 04:22:55;;;;;;;3.38;2.25;;;25.50;37.70;;;;;;4971872;28;20035;-64
2022/08/09 04:25:20;;;;;;;3.70;1.88;;;25.50;37.70;;;;;;4971708;28;20185;-64
2022/08/09 04:27:46;;;;;;;3.17;1.48;;;25.50;37.90;;;;;;4970763;28;20110;-64
2022/08/09 04:30:14;;;;;;;3.13;1.60;;;25.50;38.00;;;;;;4971453;28;20029;-64
2022/08/09 04:32:40;;;;;;;2.28;1.92;;;25.50;37.90;;;;;;4971309;28;20022;-63
2022/08/09 04:35:09;;;;;;;2.08;1.65;;;25.50;37.90;;;;;;4971144;28;20471;-64
2022/08/09 04:37:35;;;;;;;3.22;1.45;;;25.50;38.10;;;;;;4969644;28;20064;-64
2022/08/09 04:40:01;;;;;;;2.42;1.70;;;25.50;38.10;;;;;;4971092;28;20469;-64
2022/08/09 04:42:30;;;;;;;3.80;2.42;;;25.60;38.20;;;;;;4971019;28;20031;-64
2022/08/09 04:44:56;;;;;;;3.17;1.92;;;25.60;38.10;;;;;;4970798;28;20023;-64
2022/08/09 04:47:23;;;;;;;2.95;1.83;;;25.60;38.20;;;;;;4970124;28;20549;-64
2022/08/09 04:49:49;;;;;;;2.50;1.60;;;25.60;38.10;;;;;;4970903;28;20026;-63
2022/08/09 04:52:15;;;;;;;2.28;1.48;;;25.60;38.00;;;;;;4971217;28;20541;-65
2022/08/09 04:54:40;;;;;;;3.90;2.08;;;25.70;38.00;;;;;;4970805;28;20023;-64
2022/08/09 04:57:06;;;;;;;1.85;1.58;;;25.70;38.10;;;;;;4969974;28;20039;-62
2022/08/09 04:59:31;;;;;;;2.40;1.80;;;25.70;38.10;;;;;;4970518;28;20056;-64
2022/08/09 05:01:57;;;;;;;2.17;1.80;;;25.80;38.10;;;;;;4970987;28;20031;-64
2022/08/09 05:04:23;;;;;;;3.63;2.17;;;25.80;38.00;;;;;;4970791;28;20113;-63
2022/08/09 05:06:49;;;;;;;2.53;1.55;;;25.90;38.00;;;;;;4969322;28;20145;-62
2022/08/09 05:09:15;;;;;;;4.38;2.00;;;25.90;37.80;;;;;;4970024;28;20038;-62
2022/08/09 05:11:41;;;;;;;2.72;2.22;;;26.00;37.70;;;;;;4970378;28;20038;-64
2022/08/09 05:14:06;;;;;;;3.15;1.98;;;26.00;37.60;;;;;;4970381;28;20030;-63
2022/08/09 05:16:33;;;;;;;5.53;2.20;;;26.00;37.30;;;;;;4970143;28;20023;-64
2022/08/09 05:18:59;;;;;;;4.20;2.35;;;26.00;37.20;;;;;;4975085;28;20045;-65
2022/08/09 05:21:26;;;;;;;2.78;1.80;;;26.00;37.30;;;;;;4968521;28;20531;-65
2022/08/09 05:23:52;;;;;;;2.75;2.05;;;26.10;37.40;;;;;;4954770;28;20023;-64
2022/08/09 05:26:17;;;;;;;7.03;1.83;;;26.10;37.50;;;;;;4948594;28;20511;-63
2022/08/09 05:28:43;;;;;;;2.50;1.63;;;26.20;37.60;;;;;;4991819;28;20500;-64
2022/08/09 05:31:08;;;;;;;3.75;1.73;;;26.20;37.60;;;;;;4950330;28;20031;-64
2022/08/09 05:33:34;;;;;;;4.78;1.80;;;26.20;37.50;;;;;;4952393;28;20027;-64
2022/08/09 05:36:00;;;;;;;3.15;1.90;;;26.20;37.20;;;;;;4969816;28;20035;-64
2022/08/09 05:38:26;;;;;;;5.18;1.95;;;26.20;37.40;;;;;;4969413;28;20019;-64
2022/08/09 05:40:52;;;;;;;2.95;1.63;;;26.30;37.20;;;;;;4969979;28;20060;-64
2022/08/09 05:43:19;;;;;;;4.03;1.70;;;26.30;37.20;;;;;;4970224;28;20029;-64
2022/08/09 05:45:45;;;;;;;2.95;1.60;;;26.40;37.40;;;;;;4969609;28;20065;-64
2022/08/09 05:48:10;;;;;;;3.30;1.85;;;26.40;37.00;;;;;;4969651;28;20027;-63
2022/08/09 05:50:37;;;;;;;6.25;1.60;;;26.50;36.80;;;;;;4969940;28;20488;-64
2022/08/09 05:53:03;;;;;;;6.10;2.00;;;26.50;36.70;;;;;;4970029;28;20031;-64
2022/08/09 05:55:28;;;;;;;5.22;1.70;;;26.50;36.90;;;;;;4969840;28;20049;-65
2022/08/09 05:57:54;;;;;;;3.90;1.85;;;26.60;37.70;;;;;;4968979;28;20536;-64
2022/08/09 06:00:20;;;;;;;3.47;1.88;;;26.60;37.10;;;;;;4969751;28;20427;-64
2022/08/09 06:02:45;;;;;;;4.60;2.08;;;26.70;37.00;;;;;;4969986;28;20038;-64
2022/08/09 06:05:11;;;;;;;3.83;1.70;;;26.70;36.80;;;;;;4969949;28;20502;-65
2022/08/09 06:07:37;;;;;;;5.95;1.80;;;26.80;36.60;;;;;;4966830;28;20031;-63
2022/08/09 06:10:03;;;;;;;5.45;1.70;;;26.80;36.40;;;;;;4980875;28;20027;-65
2022/08/09 06:12:29;;;;;;;20.52;2.35;;;26.90;36.40;;;;;;4968913;28;20037;-64
2022/08/09 06:14:55;;;;;;;3.72;1.65;;;26.90;36.30;;;;;;4963441;28;20500;-60
2022/08/09 06:17:21;;;;;;;7.55;1.73;;;27.00;36.30;;;;;;4978962;28;20030;-64
2022/08/09 06:19:46;;;;;;;5.82;1.70;;;27.00;36.40;;;;;;4978141;28;20019;-65
2022/08/09 06:22:12;;;;;;;5.20;1.80;;;27.00;36.20;;;;;;4983047;28;20449;-64
2022/08/09 06:24:37;;;;;;;3.30;1.58;;;27.00;36.30;;;;;;4972206;28;20025;-64
2022/08/09 06:27:03;;;;;;;8.55;1.98;;;27.10;36.50;;;;;;4986096;28;20148;-62
2022/08/09 06:29:29;;;;;;;3.42;1.58;;;27.10;37.70;;;;;;4978905;28;20084;-63
2022/08/09 06:31:54;;;;;;;3.95;1.60;;;27.10;38.10;;;;;;4980365;28;20038;-64
2022/08/09 06:34:20;;;;;;;7.53;1.60;;;27.20;38.40;;;;;;4973915;28;20023;-65
2022/08/09 06:36:46;;;;;;;6.82;2.30;;;27.20;39.50;;;;;;4984930;28;20081;-66
2022/08/09 06:39:12;;;;;;;6.15;1.83;;;27.20;39.70;;;;;;4973864;28;20357;-62
2022/08/09 06:41:38;;;;;;;735.80;656.45;;;27.30;40.40;;;;;;4979081;28;20026;-65
2022/08/09 06:44:04;;;;;;;1113.78;894.83;;;27.40;40.90;;;;;;4981270;28;20122;-64
2022/08/09 06:46:30;;;;;;;1210.22;915.30;;;27.40;40.80;;;;;;4971731;28;20102;-64
2022/08/09 06:48:56;;;;;;;1803.68;999.90;;;27.40;40.40;;;;;;4984160;28;20050;-63
2022/08/09 06:51:21;;;;;;;1451.53;973.88;;;27.40;40.20;;;;;;4975829;28;20030;-64
2022/08/09 06:53:47;;;;;;;1052.45;823.58;;;27.50;39.60;;;;;;4977562;28;20420;-62
2022/08/09 06:56:12;;;;;;;667.10;570.97;;;27.50;39.10;;;;;;4982482;28;20043;-63
2022/08/09 06:58:38;;;;;;;493.42;399.83;;;27.50;38.60;;;;;;4970822;28;20062;-62
2022/08/09 07:01:04;;;;;;;398.70;298.00;;;27.60;38.40;;;;;;4982682;28;20027;-62
2022/08/09 07:03:33;;;;;;;336.20;249.80;;;27.60;38.00;;;;;;4959643;28;20484;-60
2022/08/09 07:06:01;;;;;;;291.55;216.43;;;27.60;37.80;;;;;;4974611;28;20042;-64
2022/08/09 07:08:27;;;;;;;273.35;203.48;;;27.70;37.60;;;;;;4983745;28;20027;-63
2022/08/09 07:10:53;;;;;;;231.65;168.40;;;27.70;37.50;;;;;;4971692;28;20095;-63
2022/08/09 07:13:19;;;;;;;214.00;154.70;;;27.70;37.20;;;;;;4981000;28;20031;-63
2022/08/09 07:15:45;;;;;;;237.35;169.63;;;27.70;37.10;;;;;;4972915;28;20437;-66
2022/08/09 07:18:11;;;;;;;577.15;515.53;;;27.80;37.10;;;;;;4981127;28;20057;-63
2022/08/09 07:20:36;;;;;;;913.65;801.97;;;27.90;37.10;;;;;;4971679;28;20023;-63
2022/08/09 07:23:02;;;;;;;666.35;595.95;;;27.90;37.30;;;;;;4983357;28;20485;-61
2022/08/09 07:25:28;;;;;;;569.85;508.30;;;28.00;37.70;;;;;;4976181;28;20095;-63
2022/08/09 07:27:53;;;;;;;520.15;462.75;;;28.00;37.90;;;;;;4984938;28;20547;-62
2022/08/09 07:30:19;;;;;;;489.27;426.70;;;28.10;38.00;;;;;;4972932;28;20035;-61
2022/08/09 07:32:45;;;;;;;476.90;414.25;;;28.10;38.00;;;;;;4984056;28;20382;-63
2022/08/09 07:35:11;;;;;;;475.55;407.30;;;28.20;38.00;;;;;;4973627;28;20400;-65
2022/08/09 07:37:42;;;;;;;463.73;388.67;;;28.20;38.40;;;;;;4977567;28;20027;-65
2022/08/09 07:40:08;;;;;;;451.97;387.13;;;28.20;38.60;;;;;;4981481;28;20096;-66
2022/08/09 07:42:46;;;;;;;455.52;384.92;;;28.30;38.60;;;;;;4971233;28;20050;-62
2022/08/09 07:45:12;;;;;;;540.13;481.75;;;28.30;38.80;;;;;;4980151;28;20038;-64
2022/08/09 07:47:37;;;;;;;555.42;496.45;;;28.30;38.90;;;;;;4976389;28;20026;-61
2022/08/09 07:50:03;;;;;;;605.13;540.70;;;28.40;38.90;;;;;;4975011;28;20023;-63
2022/08/09 07:52:29;;;;;;;665.42;593.22;;;28.40;38.90;;;;;;4984332;28;20038;-63
2022/08/09 07:54:55;;;;;;;681.15;608.53;;;28.40;39.20;;;;;;4971132;28;20354;-63
2022/08/09 07:57:20;;;;;;;697.40;622.05;;;28.50;39.20;;;;;;4976193;28;20396;-61
2022/08/09 07:59:46;;;;;;;605.58;539.30;;;28.50;39.40;;;;;;4964392;28;20050;-61
2022/08/09 08:02:12;;;;;;;346.42;280.83;;;28.50;39.10;;;;;;4965594;28;20031;-61
2022/08/09 08:04:38;;;;;;;317.13;252.75;;;28.50;38.30;;;;;;4967605;28;20048;-62
2022/08/09 08:07:04;;;;;;;331.42;267.23;;;28.50;38.10;;;;;;4967503;28;20027;-62
2022/08/09 08:09:30;;;;;;;359.15;288.40;;;28.50;38.10;;;;;;4967509;28;20031;-61
2022/08/09 08:11:56;;;;;;;369.75;298.48;;;28.50;38.30;;;;;;4967093;28;20681;-62
2022/08/09 08:14:21;;;;;;;375.75;303.08;;;28.60;38.30;;;;;;4968875;28;20376;-62
2022/08/09 08:16:47;;;;;;;364.60;293.63;;;28.60;38.10;;;;;;4970104;28;20096;-62
2022/08/09 08:19:12;;;;;;;345.00;278.75;;;28.60;38.00;;;;;;4969598;28;20106;-61
2022/08/09 08:21:38;;;;;;;329.10;262.20;;;28.60;37.90;;;;;;4970265;28;20453;-61
2022/08/09 08:24:04;;;;;;;307.73;248.18;;;28.70;37.80;;;;;;4970197;28;20027;-62
2022/08/09 08:26:29;;;;;;;292.98;233.25;;;28.60;37.70;;;;;;4970893;28;20053;-62
2022/08/09 08:28:55;;;;;;;283.55;226.32;;;28.70;37.70;;;;;;4969375;28;20122;-62
2022/08/09 08:31:20;;;;;;;270.50;213.77;;;28.60;37.60;;;;;;4971594;28;20035;-62
2022/08/09 08:33:46;;;;;;;257.38;206.77;;;28.70;37.50;;;;;;4971512;28;20472;-62
2022/08/09 08:36:11;;;;;;;249.63;198.07;;;28.70;37.50;;;;;;4971160;28;20034;-62
2022/08/09 08:38:37;;;;;;;241.55;190.32;;;28.70;37.40;;;;;;4970351;28;20031;-62
2022/08/09 08:41:03;;;;;;;241.93;185.27;;;28.70;37.40;;;;;;4971093;28;20034;-62
2022/08/09 08:43:29;;;;;;;227.48;178.13;;;28.70;37.30;;;;;;4971265;28;20027;-63
2022/08/09 08:46:03;;;;;;;217.23;171.02;;;28.70;37.30;;;;;;4970740;28;20038;-62
2022/08/09 08:48:30;;;;;;;213.60;167.40;;;28.70;37.30;;;;;;4969985;28;20042;-62
2022/08/09 08:50:56;;;;;;;207.55;161.73;;;28.70;37.30;;;;;;4971043;28;20236;-62
2022/08/09 08:53:22;;;;;;;201.43;156.93;;;28.70;37.20;;;;;;4970967;28;20027;-62
2022/08/09 08:55:48;;;;;;;197.35;153.68;;;28.70;37.20;;;;;;5005837;23;20078;-66
2022/08/09 08:58:14;;;;;;;193.35;148.18;;;28.70;37.20;;;;;;5032073;28;20029;-66
2022/08/09 09:00:41;;;;;;;184.55;144.02;;;28.70;37.20;;;;;;5032492;28;20495;-65
2022/08/09 09:03:09;;;;;;;182.18;141.63;;;28.70;37.20;;;;;;5032845;28;20029;-65
2022/08/09 09:05:35;;;;;;;171.35;135.82;;;28.70;37.20;;;;;;5032409;28;20112;-65
2022/08/09 09:08:02;;;;;;;167.52;130.65;;;28.70;37.20;;;;;;5031478;28;20113;-65
2022/08/09 09:10:29;;;;;;;168.25;130.00;;;28.70;37.20;;;;;;5014978;28;20064;-65
2022/08/09 09:12:55;;;;;;;161.15;127.20;;;28.70;37.20;;;;;;5032295;28;20029;-65
2022/08/09 09:15:21;;;;;;;159.80;124.25;;;28.70;37.30;;;;;;5032235;28;20060;-66
2022/08/09 09:17:46;;;;;;;154.70;121.25;;;28.70;37.20;;;;;;5031411;28;20029;-66
2022/08/09 09:20:13;;;;;;;148.07;116.80;;;28.70;37.20;;;;;;5032542;28;20399;-66
2022/08/09 09:22:57;;;;;;;140.02;111.45;;;28.70;37.20;;;;;;5032255;28;20101;-66
2022/08/09 09:25:42;;;;;;;140.35;110.50;;;28.70;37.10;;;;;;5030322;28;20026;-65
2022/08/09 09:28:10;;;;;;;137.35;107.40;;;28.70;37.00;;;;;;5031394;28;20028;-65
2022/08/09 09:30:55;;;;;;;135.85;105.57;;;28.70;37.00;;;;;;5032016;28;20041;-66
2022/08/09 09:33:33;;;;;;;128.30;101.78;;;28.70;36.90;;;;;;5032195;28;20045;-65
2022/08/09 09:36:03;;;;;;;125.13;99.43;;;28.70;36.90;;;;;;5030737;28;20025;-65
2022/08/09 09:38:40;;;;;;;122.53;97.20;;;28.70;36.90;;;;;;5031017;28;20029;-65
2022/08/09 09:41:05;;;;;;;120.45;95.28;;;28.70;36.90;;;;;;5030486;28;20116;-66
2022/08/09 09:43:31;;;;;;;114.97;91.68;;;28.70;36.90;;;;;;5032032;28;20171;-66
2022/08/09 09:46:01;;;;;;;120.43;93.22;;;28.70;37.00;;;;;;5031713;28;20490;-65
2022/08/09 09:48:28;;;;;;;114.47;89.38;;;28.70;37.00;;;;;;5031257;28;20030;-66
2022/08/09 09:50:54;;;;;;;110.90;87.82;;;28.70;37.10;;;;;;5031708;28;20105;-65
2022/08/09 09:53:25;;;;;;;109.03;86.32;;;28.70;37.00;;;;;;5031681;28;20472;-66
2022/08/09 09:55:53;;;;;;;;;;;28.70;37.00;;;;;;5031859;28;20410;-66
2022/08/09 09:58:19;;;;;;;101.78;81.75;;;28.70;37.00;;;;;;5031035;28;19916;-66
2022/08/09 10:00:53;;;;;;;100.75;79.50;;;28.70;36.90;;;;;;5031925;28;20022;-65
2022/08/09 10:03:37;;;;;;;98.25;77.10;;;28.70;36.90;;;;;;5031688;28;20022;-66
2022/08/09 10:06:02;;;;;;;93.32;73.03;;;28.70;36.90;;;;;;5031935;28;20017;-66
2022/08/09 10:08:28;;;;;;;93.07;73.38;;;28.70;37.00;;;;;;5030756;28;20373;-65
2022/08/09 10:10:54;;;;;;;93.75;72.47;;;28.80;37.00;;;;;;5031421;28;20434;-66
2022/08/09 10:13:19;;;;;;;91.65;72.47;;;28.80;37.10;;;;;;5031493;28;20101;-65
2022/08/09 10:15:49;;;;;;;88.00;70.25;;;28.70;37.10;;;;;;5031485;28;20035;-65
2022/08/09 10:18:15;;;;;;;84.90;68.85;;;28.70;37.10;;;;;;5030660;28;20421;-66
2022/08/09 10:20:41;;;;;;;85.05;66.53;;;28.80;37.10;;;;;;5031699;28;20100;-65
2022/08/09 10:23:18;;;;;;;84.70;66.95;;;28.80;37.10;;;;;;5029978;28;20029;-65
2022/08/09 10:25:49;;;;;;;78.85;64.18;;;28.70;37.10;;;;;;5031817;28;20028;-65
2022/08/09 10:28:16;;;;;;;78.53;61.15;;;28.70;37.10;;;;;;5030827;28;20038;-65
2022/08/09 10:30:42;;;;;;;74.70;59.72;;;28.70;37.10;;;;;;5031399;28;20503;-65
2022/08/09 10:33:08;;;;;;;74.47;59.67;;;28.70;37.20;;;;;;5031836;28;20025;-65
2022/08/09 10:35:34;;;;;;;75.28;58.92;;;28.80;37.20;;;;;;5029491;28;20049;-65
2022/08/09 10:38:00;;;;;;;71.05;55.13;;;28.70;37.20;;;;;;5029981;28;20030;-65
2022/08/09 10:40:26;;;;;;;67.57;52.63;;;28.70;37.10;;;;;;5030886;28;20164;-65
2022/08/09 10:42:52;;;;;;;66.13;52.60;;;28.70;37.10;;;;;;5031023;28;20030;-65
2022/08/09 10:45:20;;;;;;;63.45;51.42;;;28.70;37.10;;;;;;5030880;28;20495;-64
2022/08/09 10:47:53;;;;;;;60.80;49.40;;;28.70;37.10;;;;;;5030014;28;20487;-65
2022/08/09 10:51:19;;;;;;;66.70;49.80;;;28.70;37.00;;;;;;5031220;28;20034;-65
2022/08/09 10:53:36;;;;;;;60.25;47.58;;;28.70;37.00;;;;;;5024881;28;20029;-66
2022/08/09 10:56:38;;;;;;;58.03;46.75;;;28.70;37.00;;;;;;5030372;28;20030;-65
2022/08/09 10:59:22;;;;;;;56.10;45.25;;;28.70;36.90;;;;;;5007600;28;20113;-65
2022/08/09 11:01:48;;;;;;;55.53;44.10;;;28.70;37.00;;;;;;5029052;28;20129;-65
2022/08/09 11:04:22;;;;;;;53.85;44.40;;;28.70;37.00;;;;;;5030641;28;20072;-65
2022/08/09 11:06:56;;;;;;;54.53;44.15;;;28.60;37.00;;;;;;5029006;28;20533;-66
2022/08/09 11:09:42;;;;;;;51.70;41.80;;;28.60;37.10;;;;;;5030186;28;20056;-65
2022/08/09 11:12:16;;;;;;;48.35;40.05;;;28.70;37.10;;;;;;5030440;28;20045;-66
2022/08/09 11:14:50;;;;;;;49.88;41.40;;;28.60;37.10;;;;;;5030466;28;20484;-65
2022/08/09 11:17:15;;;;;;;47.85;40.20;;;28.60;37.10;;;;;;5029805;28;20083;-65
2022/08/09 11:20:04;;;;;;;47.50;38.67;;;28.60;37.10;;;;;;5030359;28;20033;-65
2022/08/09 11:22:42;;;;;;;48.08;37.60;;;28.60;37.00;;;;;;5030636;28;20064;-65
2022/08/09 11:25:14;;;;;;;46.50;36.75;;;28.60;37.00;;;;;;5030860;28;20032;-65
2022/08/09 11:27:47;;;;;;;46.42;36.55;;;28.60;37.10;;;;;;5029464;28;20465;-65
2022/08/09 11:30:34;;;;;;;44.15;36.45;;;28.60;37.10;;;;;;5030434;28;20021;-65
2022/08/09 11:33:04;;;;;;;43.00;35.33;;;28.60;37.20;;;;;;5029197;28;20029;-65
2022/08/09 11:35:53;;;;;;;40.38;34.30;;;28.60;37.20;;;;;;5030088;28;20546;-65
2022/08/09 11:38:23;;;;;;;39.35;32.55;;;28.60;37.20;;;;;;5029633;28;20116;-65
2022/08/09 11:40:51;;;;;;;37.83;31.92;;;28.60;37.30;;;;;;5030123;28;20029;-65
2022/08/09 11:43:38;;;;;;;36.42;30.92;;;28.50;37.30;;;;;;5030350;28;20036;-65
2022/08/09 11:46:04;;;;;;;38.05;31.40;;;28.60;37.30;;;;;;5030462;28;20100;-65
2022/08/09 11:48:33;;;;;;;33.15;28.10;;;28.60;37.30;;;;;;5032422;28;20363;-65
2022/08/09 11:51:03;;;;;;;32.17;27.15;;;28.60;37.30;;;;;;5034153;28;20479;-65
2022/08/09 11:53:37;;;;;;;34.85;27.75;;;28.50;37.30;;;;;;5034378;28;20475;-65
2022/08/09 11:56:15;;;;;;;30.55;26.17;;;28.50;37.40;;;;;;5033689;28;20048;-64
2022/08/09 11:58:45;;;;;;;32.75;26.52;;;28.50;37.40;;;;;;5032738;28;20099;-65
2022/08/09 12:01:13;;;;;;;29.80;25.10;;;28.50;37.40;;;;;;5033747;28;20034;-65
2022/08/09 12:03:40;;;;;;;30.05;25.23;;;28.50;37.40;;;;;;5033938;28;20022;-65
2022/08/09 12:06:10;;;;;;;29.83;25.42;;;28.50;37.40;;;;;;5033805;28;20021;-66
2022/08/09 12:08:36;;;;;;;30.23;24.20;;;28.50;37.50;;;;;;5032986;28;20025;-64
2022/08/09 12:11:03;;;;;;;28.13;24.20;;;28.50;37.40;;;;;;5032253;28;20315;-65
2022/08/09 12:13:38;;;;;;;27.30;22.58;;;28.50;37.40;;;;;;5033647;28;20033;-65
2022/08/09 12:16:13;;;;;;;28.02;23.98;;;28.50;37.40;;;;;;5033548;28;20088;-65
2022/08/09 12:18:41;;;;;;;26.17;21.90;;;28.50;37.40;;;;;;5032777;28;20026;-65
2022/08/09 12:21:08;;;;;;;24.50;20.65;;;28.50;37.40;;;;;;5033512;28;20092;-66
2022/08/09 12:23:42;;;;;;;24.67;21.08;;;28.50;37.40;;;;;;5033313;28;20032;-65
2022/08/09 12:26:07;;;;;;;25.73;21.27;;;28.50;37.40;;;;;;5033351;28;20056;-66
2022/08/09 12:28:33;;;;;;;22.90;19.85;;;28.50;37.40;;;;;;5032832;28;20045;-65
2022/08/09 12:30:59;;;;;;;24.10;20.77;;;28.50;37.40;;;;;;5033416;28;20033;-65
2022/08/09 12:33:25;;;;;;;21.70;18.77;;;28.50;37.40;;;;;;5033274;28;20086;-65
2022/08/09 12:36:03;;;;;;;22.33;19.08;;;28.50;37.50;;;;;;5033083;28;20100;-66
2022/08/09 12:38:29;;;;;;;28.25;18.65;;;28.50;37.50;;;;;;5032277;28;20026;-65
2022/08/09 12:40:57;;;;;;;20.60;17.75;;;28.50;37.50;;;;;;5031848;28;20181;-65
2022/08/09 12:43:25;;;;;;;20.52;18.17;;;28.50;37.50;;;;;;5032981;28;20026;-65